createdAt,value
2023-04-13T00:01:11.693Z,52.80
2023-04-13T00:03:39.608Z,53.32
2023-04-13T00:06:11.100Z,52.58
2023-04-13T00:08:38.873Z,52.94
2023-04-13T00:11:07.888Z,53.02
2023-04-13T00:13:41.527Z,53.68
2023-04-13T00:16:13.924Z,53.29
2023-04-13T00:18:41.008Z,53.38
2023-04-13T00:21:08.416Z,53.21
2023-04-13T00:23:36.389Z,52.72
2023-04-13T00:26:03.609Z,53.10
2023-04-13T00:28:30.621Z,52.74
2023-04-13T00:30:59.345Z,52.39
2023-04-13T00:33:26.700Z,52.37
2023-04-13T00:35:53.672Z,52.77
2023-04-13T00:38:20.554Z,52.60
2023-04-13T00:40:47.567Z,52.66
2023-04-13T00:43:15.036Z,51.75
2023-04-13T00:45:43.568Z,51.44
2023-04-13T00:48:11.096Z,51.80
2023-04-13T00:50:39.779Z,52.16
2023-04-13T00:53:10.954Z,52.63
2023-04-13T00:55:42.145Z,52.71
2023-04-13T00:58:09.747Z,51.81
2023-04-13T01:00:43.219Z,51.86
2023-04-13T01:03:11.506Z,51.90
2023-04-13T01:05:51.874Z,51.73
2023-04-13T01:08:36.968Z,52.05
2023-04-13T01:11:19.904Z,52.20
2023-04-13T01:13:56.514Z,52.34
2023-04-13T01:16:33.155Z,52.26
2023-04-13T01:21:54.566Z,51.88
2023-04-13T01:24:41.916Z,52.33
2023-04-13T01:27:20.636Z,52.90
2023-04-13T01:29:50.818Z,52.33
2023-04-13T01:32:18.192Z,53.05
2023-04-13T01:34:45.749Z,53.54
2023-04-13T01:37:13.084Z,53.54
2023-04-13T01:39:41.147Z,53.72
2023-04-13T01:42:19.259Z,53.68
2023-04-13T01:44:49.390Z,53.91
2023-04-13T01:47:20.633Z,54.18
2023-04-13T01:50:25.743Z,53.30
2023-04-13T01:53:08.237Z,52.63
2023-04-13T01:55:42.052Z,53.50
2023-04-13T01:58:13.192Z,53.45
2023-04-13T02:00:41.894Z,53.61
2023-04-13T02:03:13.359Z,54.52
2023-04-13T02:05:40.665Z,55.36
2023-04-13T02:08:09.302Z,55.98
2023-04-13T02:10:42.942Z,56.00
2023-04-13T02:13:10.268Z,55.84
2023-04-13T02:15:38.842Z,55.40
2023-04-13T02:18:07.329Z,56.49
2023-04-13T02:20:45.545Z,57.47
2023-04-13T02:23:15.130Z,57.00
2023-04-13T02:25:47.202Z,56.54
2023-04-13T02:28:17.842Z,56.39
2023-04-13T02:30:47.088Z,56.75
2023-04-13T02:33:14.179Z,58.48
2023-04-13T02:35:41.338Z,58.21
2023-04-13T02:38:10.722Z,57.66
2023-04-13T02:40:38.933Z,58.30
2023-04-13T02:43:29.484Z,58.37
2023-04-13T02:45:58.497Z,59.09
2023-04-13T02:48:30.684Z,59.40
2023-04-13T02:50:57.686Z,60.29
2023-04-13T02:53:29.804Z,60.32
2023-04-13T02:56:02.307Z,60.30
2023-04-13T02:58:31.752Z,59.58
2023-04-13T03:01:02.634Z,59.85
2023-04-13T03:03:30.604Z,59.34
2023-04-13T03:05:58.771Z,59.59
2023-04-13T03:08:37.280Z,60.04
2023-04-13T03:11:11.275Z,59.70
2023-04-13T03:13:47.197Z,59.31
2023-04-13T03:16:17.727Z,58.75
2023-04-13T03:18:45.815Z,58.29
2023-04-13T03:21:14.224Z,57.51
2023-04-13T03:23:49.605Z,56.89
2023-04-13T03:26:17.945Z,56.89
2023-04-13T03:28:44.890Z,57.06
2023-04-13T03:31:12.066Z,57.16
2023-04-13T03:33:39.232Z,56.92
2023-04-13T03:36:08.527Z,56.58
2023-04-13T03:38:37.496Z,57.33
2023-04-13T03:41:04.762Z,57.34
2023-04-13T03:43:33.383Z,57.51
2023-04-13T03:46:07.955Z,57.95
2023-04-13T03:48:35.940Z,58.43
2023-04-13T03:51:05.760Z,57.77
2023-04-13T03:53:44.702Z,59.17
2023-04-13T03:56:11.803Z,59.54
2023-04-13T03:58:39.596Z,60.55
2023-04-13T04:01:08.129Z,60.11
2023-04-13T04:03:44.369Z,58.95
2023-04-13T04:06:11.954Z,60.16
2023-04-13T04:08:43.910Z,60.59
2023-04-13T04:11:22.584Z,60.14
2023-04-13T04:13:49.694Z,59.83
2023-04-13T04:16:16.755Z,59.03
2023-04-13T04:18:49.709Z,59.17
2023-04-13T04:21:21.832Z,60.51
2023-04-13T04:23:49.311Z,60.76
2023-04-13T04:26:17.861Z,61.03
2023-04-13T04:29:02.554Z,62.05
2023-04-13T04:31:36.755Z,59.79
2023-04-13T04:34:06.751Z,60.68
2023-04-13T04:36:36.385Z,61.59
2023-04-13T04:39:04.757Z,62.29
2023-04-13T04:41:39.743Z,60.00
2023-04-13T04:44:09.138Z,59.20
2023-04-13T04:46:41.744Z,60.37
2023-04-13T04:49:14.052Z,60.34
2023-04-13T04:51:41.257Z,60.51
2023-04-13T04:54:09.544Z,60.98
2023-04-13T04:56:38.300Z,60.49
2023-04-13T04:59:05.806Z,59.36
2023-04-13T05:01:43.504Z,59.54
2023-04-13T05:04:13.118Z,58.95
2023-04-13T05:06:43.321Z,59.13
2023-04-13T05:09:15.216Z,59.94
2023-04-13T05:11:48.018Z,58.51
2023-04-13T05:14:16.131Z,58.82
2023-04-13T05:16:45.747Z,58.05
2023-04-13T05:19:37.111Z,58.15
2023-04-13T05:22:13.669Z,57.84
2023-04-13T05:24:47.322Z,57.58
2023-04-13T05:27:16.113Z,56.99
2023-04-13T05:29:44.556Z,56.25
2023-04-13T05:32:15.620Z,55.78
2023-04-13T05:34:43.399Z,56.13
2023-04-13T05:37:20.372Z,57.18
2023-04-13T05:39:47.506Z,56.25
2023-04-13T05:42:19.104Z,55.76
2023-04-13T05:44:47.199Z,56.51
2023-04-13T05:47:18.347Z,55.35
2023-04-13T05:49:47.077Z,56.58
2023-04-13T05:52:15.665Z,55.54
2023-04-13T05:54:46.383Z,56.66
2023-04-13T05:57:13.348Z,57.56
2023-04-13T05:59:46.058Z,55.77
2023-04-13T06:02:15.259Z,55.00
2023-04-13T06:04:43.307Z,54.98
2023-04-13T06:07:11.119Z,53.37
2023-04-13T06:09:40.141Z,53.78
2023-04-13T06:12:07.972Z,53.28
2023-04-13T06:14:35.011Z,52.20
2023-04-13T06:17:01.970Z,51.87
2023-04-13T06:19:29.298Z,51.66
2023-04-13T06:21:56.373Z,50.51
2023-04-13T06:24:23.665Z,49.43
2023-04-13T06:26:51.340Z,48.47
2023-04-13T06:29:18.602Z,48.83
2023-04-13T06:31:56.588Z,49.95
2023-04-13T06:34:23.594Z,49.59
2023-04-13T06:36:50.602Z,49.15
2023-04-13T06:39:19.591Z,47.59
2023-04-13T06:41:55.006Z,47.71
2023-04-13T06:44:42.992Z,47.23
2023-04-13T06:47:10.553Z,47.02
2023-04-13T06:49:37.594Z,45.47
2023-04-13T06:52:05.216Z,45.69
2023-04-13T06:54:32.343Z,46.13
2023-04-13T06:57:05.470Z,45.18
2023-04-13T06:59:33.196Z,46.83
2023-04-13T07:02:00.313Z,47.10
2023-04-13T07:04:29.702Z,46.64
2023-04-13T07:06:58.889Z,47.18
2023-04-13T07:09:26.226Z,47.81
2023-04-13T07:11:53.410Z,46.40
2023-04-13T07:14:21.185Z,44.66
2023-04-13T07:16:48.642Z,44.83
2023-04-13T07:19:17.000Z,44.93
2023-04-13T07:21:44.114Z,45.29
2023-04-13T07:24:11.238Z,45.42
2023-04-13T07:26:41.920Z,45.59
2023-04-13T07:29:13.503Z,45.35
2023-04-13T07:31:44.642Z,45.87
2023-04-13T07:34:12.348Z,44.38
2023-04-13T07:36:44.372Z,43.90
2023-04-13T07:39:15.064Z,43.32
2023-04-13T07:41:46.571Z,45.14
2023-04-13T07:44:17.890Z,42.98
2023-04-13T07:46:47.480Z,41.62
2023-04-13T07:49:15.022Z,42.71
2023-04-13T07:51:43.094Z,42.12
2023-04-13T07:54:10.573Z,41.60
2023-04-13T07:56:37.892Z,42.49
2023-04-13T07:59:07.112Z,42.63
2023-04-13T08:01:35.618Z,42.70
2023-04-13T08:04:03.704Z,38.34
2023-04-13T08:06:32.233Z,38.24
2023-04-13T08:09:01.680Z,39.06
2023-04-13T08:11:28.701Z,37.99
2023-04-13T08:14:02.627Z,38.26
2023-04-13T08:16:34.391Z,41.12
2023-04-13T08:19:04.250Z,34.89
2023-04-13T08:21:37.455Z,37.19
2023-04-13T08:24:08.031Z,36.34
2023-04-13T08:26:35.245Z,36.14
2023-04-13T08:29:02.413Z,36.96
2023-04-13T08:31:29.734Z,37.04
2023-04-13T08:34:01.532Z,33.12
2023-04-13T08:36:31.906Z,32.01
2023-04-13T08:39:06.049Z,33.65
2023-04-13T08:41:41.935Z,33.65
2023-04-13T08:44:13.575Z,32.17
2023-04-13T08:46:47.382Z,35.01
2023-04-13T08:49:18.755Z,33.25
2023-04-13T08:52:11.046Z,31.26
2023-04-13T08:54:40.492Z,32.72
2023-04-13T08:57:16.409Z,34.40
2023-04-13T08:59:44.918Z,33.42
2023-04-13T09:02:15.162Z,32.37
2023-04-13T09:04:56.003Z,31.97
2023-04-13T09:07:29.602Z,32.98
2023-04-13T09:10:01.687Z,31.35
2023-04-13T09:12:33.588Z,32.82
2023-04-13T09:15:00.774Z,33.17
2023-04-13T09:17:32.582Z,31.74
2023-04-13T09:20:18.388Z,32.76
2023-04-13T09:22:45.821Z,33.61
2023-04-13T09:25:29.365Z,31.74
2023-04-13T09:27:57.257Z,33.31
2023-04-13T09:30:29.937Z,33.21
2023-04-13T09:33:06.041Z,32.76
2023-04-13T09:35:34.390Z,32.25
2023-04-13T09:38:01.506Z,31.99
2023-04-13T09:40:29.423Z,31.68
2023-04-13T09:43:04.732Z,30.88
2023-04-13T09:45:36.414Z,29.90
2023-04-13T09:48:05.407Z,28.63
2023-04-13T09:50:34.868Z,28.88
2023-04-13T09:53:06.822Z,29.98
2023-04-13T09:55:37.192Z,29.29
2023-04-13T09:58:17.803Z,28.85
2023-04-13T10:00:46.652Z,30.15
2023-04-13T10:03:16.092Z,30.46
2023-04-13T10:05:58.968Z,29.91
2023-04-13T10:08:37.580Z,31.43
2023-04-13T10:11:12.819Z,29.63
2023-04-13T10:14:02.783Z,29.81
2023-04-13T10:17:05.647Z,28.74
2023-04-13T10:19:56.463Z,29.05
2023-04-13T10:22:25.023Z,29.99
2023-04-13T10:24:53.091Z,30.40
2023-04-13T10:29:50.077Z,31.07
2023-04-13T10:32:35.327Z,30.20
2023-04-13T10:35:11.844Z,29.33
2023-04-13T10:37:40.702Z,28.75
2023-04-13T10:40:10.457Z,28.65
2023-04-13T10:45:24.194Z,26.64
2023-04-13T10:47:51.584Z,28.18
2023-04-13T10:50:23.846Z,29.86
2023-04-13T10:53:07.473Z,28.71
2023-04-13T10:55:35.408Z,27.13
2023-04-13T10:58:14.567Z,27.79
2023-04-13T11:00:47.080Z,28.30
2023-04-13T11:03:17.015Z,27.94
2023-04-13T11:05:47.225Z,28.60
2023-04-13T11:08:21.665Z,27.94
2023-04-13T11:10:56.522Z,28.54
2023-04-13T11:13:31.964Z,28.24
2023-04-13T11:16:07.049Z,27.58
2023-04-13T11:18:34.136Z,27.15
2023-04-13T11:21:06.098Z,26.81
2023-04-13T11:23:36.305Z,28.28
2023-04-13T11:26:04.785Z,27.52
2023-04-13T11:28:43.628Z,27.95
2023-04-13T11:31:13.905Z,27.14
2023-04-13T11:33:41.163Z,27.32
2023-04-13T11:36:11.977Z,27.31
2023-04-13T11:38:43.083Z,26.32
2023-04-13T11:43:42.021Z,25.36
2023-04-13T11:46:13.717Z,25.76
2023-04-13T11:48:43.613Z,27.04
2023-04-13T11:51:11.559Z,25.95
2023-04-13T11:53:40.410Z,26.88
2023-04-13T11:56:09.936Z,26.08
2023-04-13T11:58:39.562Z,27.07
2023-04-13T12:01:25.121Z,27.73
2023-04-13T12:04:04.690Z,27.03
2023-04-13T12:06:45.947Z,27.19
2023-04-13T12:09:17.636Z,26.00
2023-04-13T12:11:52.135Z,25.43
2023-04-13T12:19:28.292Z,26.47
2023-04-13T12:21:58.091Z,24.47
2023-04-13T12:24:38.150Z,24.65
2023-04-13T12:29:40.551Z,26.03
2023-04-13T12:32:16.441Z,25.75
2023-04-13T12:34:44.866Z,24.85
2023-04-13T12:37:12.351Z,25.72
2023-04-13T12:39:39.576Z,25.58
2023-04-13T12:42:06.757Z,25.22
2023-04-13T12:44:34.558Z,25.02
2023-04-13T12:47:02.564Z,24.18
2023-04-13T12:49:31.145Z,24.13
2023-04-13T12:51:58.158Z,26.44
2023-04-13T12:54:30.843Z,25.82
2023-04-13T12:57:01.456Z,24.59
2023-04-13T12:59:31.264Z,23.05
2023-04-13T13:02:03.099Z,24.41
2023-04-13T13:04:33.025Z,24.00
2023-04-13T13:07:02.310Z,24.37
2023-04-13T13:09:31.204Z,24.35
2023-04-13T13:12:03.794Z,24.43
2023-04-13T13:14:33.262Z,22.57
2023-04-13T13:17:01.310Z,22.85
2023-04-13T13:19:33.658Z,23.18
2023-04-13T13:22:01.643Z,23.52
2023-04-13T13:24:29.111Z,21.18
2023-04-13T13:29:28.050Z,22.22
2023-04-13T13:31:57.843Z,23.92
2023-04-13T13:34:24.974Z,23.67
2023-04-13T13:36:51.893Z,23.54
2023-04-13T13:39:21.079Z,23.70
2023-04-13T13:41:48.281Z,22.99
2023-04-13T13:44:16.203Z,21.63
2023-04-13T13:46:43.676Z,22.50
2023-04-13T13:49:11.928Z,21.93
2023-04-13T13:51:51.387Z,21.84
2023-04-13T13:54:22.959Z,22.34
2023-04-13T13:56:50.056Z,21.43
2023-04-13T13:59:16.993Z,21.88
2023-04-13T14:01:44.777Z,22.13
2023-04-13T14:04:13.291Z,23.62
2023-04-13T14:06:40.442Z,23.03
2023-04-13T14:09:07.791Z,24.20
2023-04-13T14:11:34.947Z,23.49
2023-04-13T14:14:11.095Z,23.32
2023-04-13T14:16:48.619Z,24.26
2023-04-13T14:19:15.687Z,22.84
2023-04-13T14:21:42.807Z,23.29
2023-04-13T14:24:09.914Z,22.87
2023-04-13T14:26:38.311Z,23.80
2023-04-13T14:29:09.015Z,23.29
2023-04-13T14:31:39.113Z,22.83
2023-04-13T14:34:06.266Z,23.50
2023-04-13T14:36:33.251Z,23.23
2023-04-13T14:39:00.884Z,22.63
2023-04-13T14:41:28.061Z,23.19
2023-04-13T14:43:55.028Z,22.30
2023-04-13T14:46:22.393Z,21.99
2023-04-13T14:48:49.578Z,21.56
2023-04-13T14:51:17.542Z,23.10
2023-04-13T14:53:44.694Z,23.60
2023-04-13T14:56:11.775Z,24.01
2023-04-13T14:58:38.882Z,23.28
2023-04-13T15:01:17.602Z,22.92
2023-04-13T15:03:47.821Z,23.80
2023-04-13T15:06:17.655Z,24.64
2023-04-13T15:08:45.428Z,21.20
2023-04-13T15:11:12.463Z,21.83
2023-04-13T15:13:39.534Z,22.03
2023-04-13T15:16:07.958Z,22.28
2023-04-13T15:18:35.506Z,22.31
2023-04-13T15:21:04.114Z,23.72
2023-04-13T15:23:32.504Z,23.99
2023-04-13T15:26:01.226Z,23.67
2023-04-13T15:28:28.305Z,23.70
2023-04-13T15:30:55.351Z,24.08
2023-04-13T15:33:22.470Z,23.84
2023-04-13T15:35:51.954Z,23.90
2023-04-13T15:38:18.972Z,23.29
2023-04-13T15:40:47.274Z,23.67
2023-04-13T15:43:14.360Z,24.32
2023-04-13T15:45:41.407Z,24.50
2023-04-13T15:48:08.560Z,24.42
2023-04-13T15:50:35.712Z,23.67
2023-04-13T15:53:02.766Z,24.08
2023-04-13T15:55:29.877Z,24.95
2023-04-13T15:57:57.368Z,25.12
2023-04-13T16:00:26.213Z,25.45
2023-04-13T16:02:53.472Z,26.47
2023-04-13T16:05:21.087Z,26.66
2023-04-13T16:07:48.489Z,26.93
2023-04-13T16:10:16.893Z,27.39
2023-04-13T16:12:44.807Z,27.87
2023-04-13T16:15:12.692Z,28.62
2023-04-13T16:17:43.876Z,29.92
2023-04-13T16:20:14.335Z,30.82
2023-04-13T16:22:43.468Z,31.60
2023-04-13T16:25:11.765Z,32.29
2023-04-13T16:27:39.852Z,32.44
2023-04-13T16:30:13.365Z,32.20
2023-04-13T16:32:47.100Z,32.75
2023-04-13T16:35:14.336Z,33.02
2023-04-13T16:37:42.906Z,33.51
2023-04-13T16:40:11.479Z,33.49
2023-04-13T16:42:40.469Z,34.14
2023-04-13T16:45:14.385Z,34.67
2023-04-13T16:47:42.573Z,35.09
2023-04-13T16:50:13.738Z,35.87
2023-04-13T16:52:40.949Z,36.89
2023-04-13T16:55:11.575Z,38.06
2023-04-13T16:57:38.645Z,38.53
2023-04-13T17:00:15.591Z,39.39
2023-04-13T17:02:43.120Z,39.83
2023-04-13T17:05:11.656Z,41.01
2023-04-13T17:07:40.588Z,41.88
2023-04-13T17:10:09.220Z,41.90
2023-04-13T17:12:39.216Z,42.62
2023-04-13T17:15:28.809Z,43.34
2023-04-13T17:17:56.064Z,43.81
2023-04-13T17:20:23.329Z,44.13
2023-04-13T17:22:51.276Z,44.72
2023-04-13T17:25:20.580Z,45.41
2023-04-13T17:27:48.206Z,46.16
2023-04-13T17:30:15.330Z,46.93
2023-04-13T17:32:42.905Z,46.96
2023-04-13T17:35:10.591Z,47.04
2023-04-13T17:37:37.725Z,47.89
2023-04-13T17:40:06.911Z,48.32
2023-04-13T17:42:33.959Z,48.53
2023-04-13T17:45:01.736Z,49.25
2023-04-13T17:47:29.781Z,50.27
2023-04-13T17:49:56.861Z,50.77
2023-04-13T17:52:24.908Z,50.87
2023-04-13T17:54:51.902Z,51.18
2023-04-13T17:57:19.402Z,51.64
2023-04-13T17:59:47.294Z,52.28
2023-04-13T18:02:14.961Z,52.37
2023-04-13T18:04:42.622Z,52.80
2023-04-13T18:07:09.673Z,53.08
2023-04-13T18:09:57.680Z,53.69
2023-04-13T18:12:44.605Z,53.95
2023-04-13T18:15:13.310Z,54.48
2023-04-13T18:17:41.701Z,54.29
2023-04-13T18:20:09.474Z,54.96
2023-04-13T18:22:36.965Z,55.30
2023-04-13T18:25:07.770Z,55.88
2023-04-13T18:27:36.269Z,55.51
2023-04-13T18:30:06.298Z,56.64
2023-04-13T18:32:33.373Z,57.25
2023-04-13T18:35:00.714Z,57.49
2023-04-13T18:37:27.737Z,57.77
2023-04-13T18:39:57.575Z,57.46
2023-04-13T18:42:25.763Z,57.46
2023-04-13T18:44:52.786Z,57.51
2023-04-13T18:47:23.895Z,58.05
2023-04-13T18:49:51.519Z,57.86
2023-04-13T18:52:18.799Z,58.81
2023-04-13T18:54:45.876Z,59.36
2023-04-13T18:57:13.405Z,59.29
2023-04-13T18:59:41.223Z,59.55
2023-04-13T19:02:08.528Z,59.69
2023-04-13T19:04:37.260Z,59.53
2023-04-13T19:07:08.671Z,60.51
2023-04-13T19:09:39.362Z,60.47
2023-04-13T19:12:07.677Z,60.28
2023-04-13T19:14:40.216Z,59.08
2023-04-13T19:17:07.389Z,59.11
2023-04-13T19:19:34.857Z,59.12
2023-04-13T19:22:03.355Z,59.23
2023-04-13T19:24:30.685Z,59.75
2023-04-13T19:26:57.786Z,59.89
2023-04-13T19:29:30.674Z,59.99
2023-04-13T19:31:58.401Z,60.13
2023-04-13T19:34:26.336Z,60.35
2023-04-13T19:36:59.787Z,60.83
2023-04-13T19:39:27.405Z,61.03
2023-04-13T19:41:57.921Z,60.67
2023-04-13T19:44:25.057Z,60.86
2023-04-13T19:46:53.869Z,61.03
2023-04-13T19:49:21.643Z,61.84
2023-04-13T19:51:50.178Z,61.68
2023-04-13T19:54:17.393Z,62.65
2023-04-13T19:56:46.384Z,62.40
2023-04-13T19:59:15.159Z,62.37
2023-04-13T20:01:47.210Z,61.74
2023-04-13T20:04:15.669Z,61.44
2023-04-13T20:06:50.233Z,61.52
2023-04-13T20:09:18.517Z,61.90
2023-04-13T20:11:46.772Z,61.88
2023-04-13T20:14:16.813Z,61.70
2023-04-13T20:16:45.942Z,62.03
2023-04-13T20:19:16.353Z,61.87
2023-04-13T20:21:46.696Z,61.85
2023-04-13T20:24:20.036Z,61.70
2023-04-13T20:26:58.900Z,62.18
2023-04-13T20:29:40.762Z,62.52
2023-04-13T20:32:36.248Z,62.41
2023-04-13T20:35:06.705Z,62.76
2023-04-13T20:37:40.426Z,62.31
2023-04-13T20:40:13.682Z,61.94
2023-04-13T20:42:45.644Z,62.35
2023-04-13T20:45:15.844Z,62.50
2023-04-13T20:47:42.944Z,62.07
2023-04-13T20:50:13.155Z,60.74
2023-04-13T20:52:43.297Z,63.32
2023-04-13T20:55:19.312Z,65.83
2023-04-13T20:58:17.223Z,68.28
2023-04-13T21:00:56.380Z,68.80
2023-04-13T21:03:23.899Z,68.68
2023-04-13T21:05:52.765Z,68.36
2023-04-13T21:08:21.153Z,67.43
2023-04-13T21:10:48.130Z,69.55
2023-04-13T21:13:16.285Z,70.06
2023-04-13T21:15:44.260Z,70.80
2023-04-13T21:18:11.604Z,70.58
2023-04-13T21:20:40.872Z,69.81
2023-04-13T21:23:08.286Z,68.11
2023-04-13T21:25:37.373Z,69.74
2023-04-13T21:28:04.833Z,70.93
2023-04-13T21:30:31.931Z,70.67
2023-04-13T21:32:59.514Z,70.37
2023-04-13T21:35:26.473Z,69.89
2023-04-13T21:37:54.642Z,70.17
2023-04-13T21:40:24.810Z,70.86
2023-04-13T21:42:51.930Z,72.35
2023-04-13T21:45:19.158Z,72.23
2023-04-13T21:47:47.178Z,71.70
2023-04-13T21:50:14.316Z,70.96
2023-04-13T21:52:41.868Z,72.99
2023-04-13T21:55:14.744Z,73.02
2023-04-13T21:57:41.660Z,73.18
2023-04-13T22:00:09.433Z,73.58
2023-04-13T22:02:39.366Z,73.46
2023-04-13T22:05:09.289Z,73.03
2023-04-13T22:07:42.924Z,73.36
2023-04-13T22:10:11.532Z,73.34
2023-04-13T22:12:38.711Z,73.62
2023-04-13T22:15:06.562Z,73.57
2023-04-13T22:17:33.580Z,73.70
2023-04-13T22:20:00.729Z,72.63
2023-04-13T22:22:27.785Z,72.77
2023-04-13T22:24:54.970Z,74.05
2023-04-13T22:27:22.242Z,74.06
2023-04-13T22:29:49.240Z,73.69
2023-04-13T22:32:16.793Z,73.78
2023-04-13T22:34:43.816Z,72.83
2023-04-13T22:37:12.306Z,73.10
2023-04-13T22:39:40.064Z,74.62
2023-04-13T22:42:06.999Z,74.15
2023-04-13T22:44:36.857Z,74.83
2023-04-13T22:47:04.638Z,75.21
2023-04-13T22:49:31.745Z,75.15
2023-04-13T22:52:00.297Z,74.30
2023-04-13T22:54:27.365Z,74.37
2023-04-13T22:56:54.311Z,74.64
2023-04-13T22:59:21.310Z,74.30
2023-04-13T23:01:48.342Z,74.73
2023-04-13T23:04:16.281Z,75.02
2023-04-13T23:06:43.550Z,74.65
2023-04-13T23:09:10.516Z,75.39
2023-04-13T23:11:37.863Z,75.16
2023-04-13T23:14:06.735Z,75.76
2023-04-13T23:16:34.545Z,75.69
2023-04-13T23:19:01.872Z,76.02
2023-04-13T23:21:29.308Z,76.11
2023-04-13T23:23:56.189Z,76.40
2023-04-13T23:26:23.308Z,76.35
2023-04-13T23:28:50.336Z,76.13
2023-04-13T23:31:17.417Z,76.96
2023-04-13T23:33:44.407Z,76.37
2023-04-13T23:36:11.760Z,77.02
2023-04-13T23:38:38.898Z,76.36
2023-04-13T23:41:05.938Z,77.21
2023-04-13T23:43:32.960Z,77.09
2023-04-13T23:46:00.034Z,76.64
2023-04-13T23:48:29.224Z,77.30
2023-04-13T23:50:57.334Z,77.62
2023-04-13T23:53:24.735Z,77.91
2023-04-13T23:55:52.242Z,78.38
2023-04-13T23:58:19.194Z,78.56
